เทศบาลนครเชียงใหม่, ประเทศไทย

04:33 AM ICT วัน สิงหาคม 30, 2016 (GMT +0700)
ThaiWx Station | | Change Station

Elev 1007 ft 18.77 °N, 98.97 °E | Updated 1 minute ago

Scattered Clouds
มีเมฆคลุมเป็นบางส่วน
76.8 ฟาเรนไฮน์
Feels Like 78 ฟาเรนไฮน์
N
0.0
ลม ความผันแปร ลม from ทางทิศใต้และทิศตะวันออกเฉียงใต้
Gusts 0.0 mph

วันนี้
High -- | Low -- ฟาเรนไฮน์
--% Chance of Precip.
Yesterday
High -- | Low -- ฟาเรนไฮน์
Precip. -- นิ้ว
ความดัน 29.77 นิ้ว
ทัศนวิสัย 6.2 ไมล์
เมฆ Few 1200 ft
มีเมฆคลุมเป็นบางส่วน 3500 ft
ดัชนีความร้อน 78 ฟาเรนไฮน์
อุณหภูมิที่อากาศอาจจับตัวเป็นหยาดน้ำค้าง 70 ฟาเรนไฮน์
ความชื้น 79%
Rainfall 0.00 นิ้ว
Snow Depth Not available.
6:08 AM 6:40 PM
เดือนเสี้ยว, 7% visible
METAR VTCC 292100Z 00000KT 9999 FEW012 SCT035 25/24 Q1008 A2978 NOSIG
ความดัน 29.77 นิ้ว
ทัศนวิสัย 6.2 ไมล์
เมฆ Few 1200 ft
มีเมฆคลุมเป็นบางส่วน 3500 ft
ดัชนีความร้อน 78 ฟาเรนไฮน์
อุณหภูมิที่อากาศอาจจับตัวเป็นหยาดน้ำค้าง 70 ฟาเรนไฮน์
ความชื้น 79%
Rainfall 0.00 นิ้ว
Snow Depth Not available.
6:08 AM 6:40 PM
เดือนเสี้ยว, 7% visible
METAR VTCC 292100Z 00000KT 9999 FEW012 SCT035 25/24 Q1008 A2978 NOSIG

10-Day Weather Forecast

No radar image for this location.
×

Almanac

ดาราศาสตร์

Aug. 30, 2016 Rise Set
Actual Time
Civil Twilight
Nautical Twilight
Astronomical Twilight
Moon
Length Of Visible Light
ความยาวของวัน
Tomorrow will be .
, % of the Moon is Illuminated

Today's Extremes

Country Highs Country Lows

Community

WunderPhotos

Upload Photos

1,935,679 photos uploaded!

WunderBlog® & News

Nearby

Air Quality

  Air Quality AQ Index Pollutant
Not available.

Snow Depth

Station Depth Elevation

Earthquake Activity

City Distance Mag. Time & Date
Minimum magnitude displayed is 2.5.

Coastal Water Temperatures

สถานที่ อุณหภูมิ

Stations

Nearby Weather Stations

Station Location Temp ลมหนาว อุณหภูมิที่อากาศอาจจับตัวเป็นหยาดน้ำค้าง ความชื้น ลม Precip. Elev ปรับปรุงล่าสุด Type